Terminal Aerodrome Forecast
Issued by NWS Atlanta, GA

Home | Current Version | Previous Version | Text Only | Print | Product List | Glossary On
Versions: 1 2 3 4 5 6 7 8 9 10 11 12 13 14 15 16 17 18 19 20 21 22 23 24 25 26 27 28 29 30 31 32 33 34 35 36 37 38 39 40 41 42 43 44 45 46 47 48 49 50
311
FTUS42 KFFC 181727
TAFCSG
TAF
KCSG 181727Z 1818/1918 27005KT P6SM VCSH BKN050
      TEMPO 1820/1824 VRB15G25KT 4SM TSRA BKN030CB
     FM190200 25004KT P6SM VCSH OVC050
     FM190500 VRB03KT P6SM SCT050 BKN250
     FM191500 31004KT P6SM BKN030
     FM191600 30004KT P6SM VCSH BKN035 PROB30 1917/1918 4SM TSRA
      OVC025CB=

USA.gov is the U.S. government's official web portal to all federal, state and local government web resources and services.